Terminal Aerodrome Forecast
Issued by NWS Paducah, KY

Home | Current Version | Previous Version | Text Only | Print | Product List | Glossary Off
Versions: 1 2 3 4 5 6 7 8 9 10 11 12 13 14 15 16 17 18 19 20 21 22 23

831
FTUS43 KPAH 290110 AAA
TAFPAH
TAF AMD
KPAH 290110Z 2901/2924 04006KT P6SM OVC035
     FM290800 07005KT P6SM BKN015
      TEMPO 2908/2912 4SM BR
     FM292200 11010KT P6SM BKN050=

USA.gov is the U.S. government's official web portal to all federal, state and local government web resources and services.